sensor_id;sensor_type;location;lat;lon;timestamp;pressure;altitude;pressure_sealevel;temperature;humidity
9141;BME280;46330;50.822;7.126;2022-10-16T00:02:22;100512.69;;;13.72;100.00
9141;BME280;46330;50.822;7.126;2022-10-16T00:04:50;100512.69;;;13.72;100.00
9141;BME280;46330;50.822;7.126;2022-10-16T00:07:18;100525.72;;;13.75;100.00
9141;BME280;46330;50.822;7.126;2022-10-16T00:09:46;100516.84;;;13.77;100.00
9141;BME280;46330;50.822;7.126;2022-10-16T00:12:14;100522.91;;;13.79;100.00
9141;BME280;46330;50.822;7.126;2022-10-16T00:14:43;100521.91;;;13.83;100.00
9141;BME280;46330;50.822;7.126;2022-10-16T00:17:10;100516.81;;;13.79;100.00
9141;BME280;46330;50.822;7.126;2022-10-16T00:19:39;100527.38;;;13.77;100.00
9141;BME280;46330;50.822;7.126;2022-10-16T00:22:07;100526.63;;;13.74;100.00
9141;BME280;46330;50.822;7.126;2022-10-16T00:24:36;100529.34;;;13.71;100.00
9141;BME280;46330;50.822;7.126;2022-10-16T00:27:04;100525.03;;;13.70;100.00
9141;BME280;46330;50.822;7.126;2022-10-16T00:29:31;100522.50;;;13.67;100.00
9141;BME280;46330;50.822;7.126;2022-10-16T00:32:01;100532.03;;;13.69;100.00
9141;BME280;46330;50.822;7.126;2022-10-16T00:34:28;100537.34;;;13.68;100.00
9141;BME280;46330;50.822;7.126;2022-10-16T00:36:56;100535.56;;;13.68;100.00
9141;BME280;46330;50.822;7.126;2022-10-16T00:39:24;100545.19;;;13.69;100.00
9141;BME280;46330;50.822;7.126;2022-10-16T00:41:52;100549.50;;;13.70;100.00
9141;BME280;46330;50.822;7.126;2022-10-16T00:44:42;100533.06;;;13.65;100.00
9141;BME280;46330;50.822;7.126;2022-10-16T00:47:15;100532.25;;;13.63;100.00
9141;BME280;46330;50.822;7.126;2022-10-16T00:49:46;100527.09;;;13.60;100.00
9141;BME280;46330;50.822;7.126;2022-10-16T00:52:15;100524.63;;;13.56;100.00
9141;BME280;46330;50.822;7.126;2022-10-16T00:54:44;100524.56;;;13.57;100.00
9141;BME280;46330;50.822;7.126;2022-10-16T00:57:13;100525.31;;;13.61;100.00
9141;BME280;46330;50.822;7.126;2022-10-16T00:59:42;100531.50;;;13.60;100.00
9141;BME280;46330;50.822;7.126;2022-10-16T01:02:13;100533.16;;;13.62;100.00
9141;BME280;46330;50.822;7.126;2022-10-16T01:04:43;100532.28;;;13.62;100.00
9141;BME280;46330;50.822;7.126;2022-10-16T01:07:16;100531.38;;;13.63;100.00
9141;BME280;46330;50.822;7.126;2022-10-16T01:09:57;100533.25;;;13.59;100.00
9141;BME280;46330;50.822;7.126;2022-10-16T01:12:36;100530.84;;;13.53;100.00
9141;BME280;46330;50.822;7.126;2022-10-16T01:15:14;100528.31;;;13.50;100.00
9141;BME280;46330;50.822;7.126;2022-10-16T01:18:08;100533.59;;;13.48;100.00
9141;BME280;46330;50.822;7.126;2022-10-16T01:20:42;100533.75;;;13.44;100.00
9141;BME280;46330;50.822;7.126;2022-10-16T01:23:21;100539.03;;;13.44;100.00
9141;BME280;46330;50.822;7.126;2022-10-16T01:26:11;100536.38;;;13.44;100.00
9141;BME280;46330;50.822;7.126;2022-10-16T01:28:47;100539.06;;;13.42;100.00
9141;BME280;46330;50.822;7.126;2022-10-16T01:31:19;100540.88;;;13.40;100.00
9141;BME280;46330;50.822;7.126;2022-10-16T01:33:59;100547.03;;;13.39;100.00
9141;BME280;46330;50.822;7.126;2022-10-16T01:36:31;100535.97;;;13.30;100.00
9141;BME280;46330;50.822;7.126;2022-10-16T01:39:03;100533.50;;;13.25;100.00
9141;BME280;46330;50.822;7.126;2022-10-16T01:41:33;100536.22;;;13.22;100.00
9141;BME280;46330;50.822;7.126;2022-10-16T01:44:07;100543.94;;;13.27;100.00
9141;BME280;46330;50.822;7.126;2022-10-16T01:46:39;100538.94;;;13.19;100.00
9141;BME280;46330;50.822;7.126;2022-10-16T01:49:09;100540.09;;;13.11;100.00
9141;BME280;46330;50.822;7.126;2022-10-16T01:51:38;100558.41;;;13.12;100.00
9141;BME280;46330;50.822;7.126;2022-10-16T01:54:08;100551.50;;;13.10;100.00
9141;BME280;46330;50.822;7.126;2022-10-16T01:56:36;100541.16;;;13.04;100.00
9141;BME280;46330;50.822;7.126;2022-10-16T01:59:11;100539.50;;;13.01;100.00
9141;BME280;46330;50.822;7.126;2022-10-16T02:01:44;100543.88;;;13.01;100.00
9141;BME280;46330;50.822;7.126;2022-10-16T02:04:16;100546.63;;;12.96;100.00
9141;BME280;46330;50.822;7.126;2022-10-16T02:06:44;100543.22;;;12.92;100.00
9141;BME280;46330;50.822;7.126;2022-10-16T02:09:12;100548.47;;;12.92;100.00
9141;BME280;46330;50.822;7.126;2022-10-16T02:11:42;100545.84;;;12.92;100.00
9141;BME280;46330;50.822;7.126;2022-10-16T02:14:11;100541.44;;;12.94;100.00
9141;BME280;46330;50.822;7.126;2022-10-16T02:16:41;100549.16;;;12.99;100.00
9141;BME280;46330;50.822;7.126;2022-10-16T02:19:11;100557.03;;;12.99;100.00
9141;BME280;46330;50.822;7.126;2022-10-16T02:21:43;100560.44;;;13.03;100.00
9141;BME280;46330;50.822;7.126;2022-10-16T02:24:18;100558.56;;;13.06;100.00
9141;BME280;46330;50.822;7.126;2022-10-16T02:26:52;100557.69;;;13.07;100.00
9141;BME280;46330;50.822;7.126;2022-10-16T02:29:26;100554.16;;;13.08;100.00
9141;BME280;46330;50.822;7.126;2022-10-16T02:31:59;100545.34;;;13.11;100.00
9141;BME280;46330;50.822;7.126;2022-10-16T02:34:30;100556.66;;;13.13;100.00
9141;BME280;46330;50.822;7.126;2022-10-16T02:37:01;100552.22;;;13.15;100.00
9141;BME280;46330;50.822;7.126;2022-10-16T02:39:29;100547.81;;;13.15;100.00
9141;BME280;46330;50.822;7.126;2022-10-16T02:41:57;100562.63;;;13.18;100.00
9141;BME280;46330;50.822;7.126;2022-10-16T02:44:27;100562.63;;;13.18;100.00
9141;BME280;46330;50.822;7.126;2022-10-16T02:46:54;100574.78;;;13.20;100.00
9141;BME280;46330;50.822;7.126;2022-10-16T02:49:22;100573.19;;;13.16;100.00
9141;BME280;46330;50.822;7.126;2022-10-16T02:51:50;100560.94;;;13.15;100.00
9141;BME280;46330;50.822;7.126;2022-10-16T02:54:18;100560.84;;;13.18;100.00
9141;BME280;46330;50.822;7.126;2022-10-16T02:56:45;100563.34;;;13.23;100.00
9141;BME280;46330;50.822;7.126;2022-10-16T02:59:13;100559.97;;;13.19;100.00
9141;BME280;46330;50.822;7.126;2022-10-16T03:01:42;100570.41;;;13.21;100.00
9141;BME280;46330;50.822;7.126;2022-10-16T03:04:11;100567.88;;;13.18;100.00
9141;BME280;46330;50.822;7.126;2022-10-16T03:06:38;100567.94;;;13.16;100.00
9141;BME280;46330;50.822;7.126;2022-10-16T03:09:06;100568.72;;;13.20;100.00
9141;BME280;46330;50.822;7.126;2022-10-16T03:11:34;100552.19;;;13.16;100.00
9141;BME280;46330;50.822;7.126;2022-10-16T03:14:02;100553.06;;;13.15;100.00
9141;BME280;46330;50.822;7.126;2022-10-16T03:16:30;100553.13;;;13.14;100.00
9141;BME280;46330;50.822;7.126;2022-10-16T03:18:59;100549.59;;;13.15;100.00
9141;BME280;46330;50.822;7.126;2022-10-16T03:21:26;100549.38;;;13.21;100.00
9141;BME280;46330;50.822;7.126;2022-10-16T03:23:54;100557.28;;;13.21;100.00
9141;BME280;46330;50.822;7.126;2022-10-16T03:26:22;100549.38;;;13.21;100.00
9141;BME280;46330;50.822;7.126;2022-10-16T03:28:50;100560.66;;;13.24;100.00
9141;BME280;46330;50.822;7.126;2022-10-16T03:31:18;100558.13;;;13.21;100.00
9141;BME280;46330;50.822;7.126;2022-10-16T03:33:45;100551.16;;;13.20;100.00
9141;BME280;46330;50.822;7.126;2022-10-16T03:36:15;100555.47;;;13.23;100.00
9141;BME280;46330;50.822;7.126;2022-10-16T03:38:42;100555.38;;;13.26;100.00
9141;BME280;46330;50.822;7.126;2022-10-16T03:41:10;100551.03;;;13.25;100.00
9141;BME280;46330;50.822;7.126;2022-10-16T03:43:38;100556.06;;;13.31;100.00
9141;BME280;46330;50.822;7.126;2022-10-16T03:46:06;100549.94;;;13.32;100.00
9141;BME280;46330;50.822;7.126;2022-10-16T03:48:33;100554.22;;;13.34;100.00
9141;BME280;46330;50.822;7.126;2022-10-16T03:51:01;100559.41;;;13.36;100.00
9141;BME280;46330;50.822;7.126;2022-10-16T03:53:30;100565.50;;;13.38;100.00
9141;BME280;46330;50.822;7.126;2022-10-16T03:55:58;100571.44;;;13.43;100.00
9141;BME280;46330;50.822;7.126;2022-10-16T03:58:26;100574.84;;;13.46;100.00
9141;BME280;46330;50.822;7.126;2022-10-16T04:00:54;100587.09;;;13.48;100.00
9141;BME280;46330;50.822;7.126;2022-10-16T04:03:22;100590.59;;;13.46;100.00
9141;BME280;46330;50.822;7.126;2022-10-16T04:05:50;100600.16;;;13.49;100.00
9141;BME280;46330;50.822;7.126;2022-10-16T04:08:18;100599.19;;;13.52;100.00
9141;BME280;46330;50.822;7.126;2022-10-16T04:10:47;100603.44;;;13.56;100.00
9141;BME280;46330;50.822;7.126;2022-10-16T04:13:15;100607.75;;;13.58;100.00
9141;BME280;46330;50.822;7.126;2022-10-16T04:15:44;100612.13;;;13.58;100.00
9141;BME280;46330;50.822;7.126;2022-10-16T04:18:12;100600.63;;;13.62;100.00
9141;BME280;46330;50.822;7.126;2022-10-16T04:20:40;100598.00;;;13.62;100.00
9141;BME280;46330;50.822;7.126;2022-10-16T04:23:08;100599.81;;;13.60;100.00
9141;BME280;46330;50.822;7.126;2022-10-16T04:25:36;100605.09;;;13.60;100.00
9141;BME280;46330;50.822;7.126;2022-10-16T04:28:05;100597.13;;;13.61;100.00
9141;BME280;46330;50.822;7.126;2022-10-16T04:30:32;100604.00;;;13.65;100.00
9141;BME280;46330;50.822;7.126;2022-10-16T04:33:00;100604.91;;;13.64;100.00
9141;BME280;46330;50.822;7.126;2022-10-16T04:35:28;100613.63;;;13.66;100.00
9141;BME280;46330;50.822;7.126;2022-10-16T04:37:57;100624.94;;;13.68;100.00
9141;BME280;46330;50.822;7.126;2022-10-16T04:40:24;100633.69;;;13.69;100.00
9141;BME280;46330;50.822;7.126;2022-10-16T04:42:52;100624.09;;;13.68;100.00
9141;BME280;46330;50.822;7.126;2022-10-16T04:45:21;100618.03;;;13.66;100.00
9141;BME280;46330;50.822;7.126;2022-10-16T04:47:49;100618.91;;;13.65;100.00
9141;BME280;46330;50.822;7.126;2022-10-16T04:50:17;100625.84;;;13.67;100.00
9141;BME280;46330;50.822;7.126;2022-10-16T04:53:00;100618.81;;;13.68;100.00
9141;BME280;46330;50.822;7.126;2022-10-16T04:55:28;100617.97;;;13.67;100.00
9141;BME280;46330;50.822;7.126;2022-10-16T04:57:56;100617.97;;;13.67;100.00
9141;BME280;46330;50.822;7.126;2022-10-16T05:00:25;100620.56;;;13.69;100.00
9141;BME280;46330;50.822;7.126;2022-10-16T05:02:53;100623.13;;;13.70;100.00
9141;BME280;46330;50.822;7.126;2022-10-16T05:05:21;100615.31;;;13.67;100.00
9141;BME280;46330;50.822;7.126;2022-10-16T05:07:49;100634.50;;;13.71;100.00
9141;BME280;46330;50.822;7.126;2022-10-16T05:10:17;100652.91;;;13.71;100.00
9141;BME280;46330;50.822;7.126;2022-10-16T05:12:46;100653.84;;;13.68;100.00
9141;BME280;46330;50.822;7.126;2022-10-16T05:15:13;100659.91;;;13.70;100.00
9141;BME280;46330;50.822;7.126;2022-10-16T05:17:42;100647.75;;;13.68;100.00
9141;BME280;46330;50.822;7.126;2022-10-16T05:20:11;100643.34;;;13.68;100.00
9141;BME280;46330;50.822;7.126;2022-10-16T05:22:38;100652.09;;;13.69;100.00
9141;BME280;46330;50.822;7.126;2022-10-16T05:25:06;100645.06;;;13.69;100.00
9141;BME280;46330;50.822;7.126;2022-10-16T05:27:34;100642.38;;;13.71;100.00
9141;BME280;46330;50.822;7.126;2022-10-16T05:30:03;100652.81;;;13.74;100.00
9141;BME280;46330;50.822;7.126;2022-10-16T05:32:35;100650.16;;;13.74;100.00
9141;BME280;46330;50.822;7.126;2022-10-16T05:35:05;100646.69;;;13.73;100.00
9141;BME280;46330;50.822;7.126;2022-10-16T05:37:38;100651.91;;;13.75;100.00
9141;BME280;46330;50.822;7.126;2022-10-16T05:40:07;100660.59;;;13.77;100.00
9141;BME280;46330;50.822;7.126;2022-10-16T05:42:35;100654.47;;;13.76;100.00
9141;BME280;46330;50.822;7.126;2022-10-16T05:45:04;100650.06;;;13.77;100.00
9141;BME280;46330;50.822;7.126;2022-10-16T05:47:32;100650.94;;;13.77;100.00
9141;BME280;46330;50.822;7.126;2022-10-16T05:50:00;100658.72;;;13.80;100.00
9141;BME280;46330;50.822;7.126;2022-10-16T05:52:30;100658.91;;;13.74;100.00
9141;BME280;46330;50.822;7.126;2022-10-16T05:54:57;100666.91;;;13.71;100.00
9141;BME280;46330;50.822;7.126;2022-10-16T05:57:25;100681.69;;;13.75;100.00
9141;BME280;46330;50.822;7.126;2022-10-16T05:59:53;100683.44;;;13.75;100.00
9141;BME280;46330;50.822;7.126;2022-10-16T06:02:21;100694.84;;;13.74;100.00
9141;BME280;46330;50.822;7.126;2022-10-16T06:04:49;100693.97;;;13.75;100.00
9141;BME280;46330;50.822;7.126;2022-10-16T06:07:20;100689.56;;;13.75;100.00
9141;BME280;46330;50.822;7.126;2022-10-16T06:09:50;100690.38;;;13.77;100.00
9141;BME280;46330;50.822;7.126;2022-10-16T06:12:18;100690.44;;;13.76;100.00
9141;BME280;46330;50.822;7.126;2022-10-16T06:14:46;100703.50;;;13.77;100.00
9141;BME280;46330;50.822;7.126;2022-10-16T06:17:14;100705.25;;;13.78;100.00
9141;BME280;46330;50.822;7.126;2022-10-16T06:19:42;100715.75;;;13.78;100.00
9141;BME280;46330;50.822;7.126;2022-10-16T06:22:10;100720.25;;;13.75;100.00
9141;BME280;46330;50.822;7.126;2022-10-16T06:24:37;100722.06;;;13.73;100.00
9141;BME280;46330;50.822;7.126;2022-10-16T06:27:07;100718.59;;;13.72;100.00
9141;BME280;46330;50.822;7.126;2022-10-16T06:29:34;100727.44;;;13.70;100.00
9141;BME280;46330;50.822;7.126;2022-10-16T06:32:02;100731.91;;;13.66;100.00
9141;BME280;46330;50.822;7.126;2022-10-16T06:34:30;100725.97;;;13.60;100.00
9141;BME280;46330;50.822;7.126;2022-10-16T06:36:58;100721.88;;;13.51;100.00
9141;BME280;46330;50.822;7.126;2022-10-16T06:39:26;100733.97;;;13.57;100.00
9141;BME280;46330;50.822;7.126;2022-10-16T06:41:53;100748.63;;;13.64;100.00
9141;BME280;46330;50.822;7.126;2022-10-16T06:44:26;100759.06;;;13.67;100.00
9141;BME280;46330;50.822;7.126;2022-10-16T06:46:54;100766.72;;;13.74;100.00
9141;BME280;46330;50.822;7.126;2022-10-16T06:49:22;100747.50;;;13.72;100.00
9141;BME280;46330;50.822;7.126;2022-10-16T06:51:50;100756.88;;;13.81;100.00
9141;BME280;46330;50.822;7.126;2022-10-16T06:54:17;100758.31;;;13.91;100.00
9141;BME280;46330;50.822;7.126;2022-10-16T06:56:45;100769.41;;;14.00;100.00
9141;BME280;46330;50.822;7.126;2022-10-16T06:59:13;100775.28;;;14.09;100.00
9141;BME280;46330;50.822;7.126;2022-10-16T07:01:42;100776.06;;;14.11;100.00
9141;BME280;46330;50.822;7.126;2022-10-16T07:04:10;100771.38;;;14.20;100.00
9141;BME280;46330;50.822;7.126;2022-10-16T07:06:37;100775.63;;;14.26;100.00
9141;BME280;46330;50.822;7.126;2022-10-16T07:09:07;100778.81;;;14.35;100.00
9141;BME280;46330;50.822;7.126;2022-10-16T07:11:36;100783.81;;;14.44;100.00
9141;BME280;46330;50.822;7.126;2022-10-16T07:14:12;100785.31;;;14.51;100.00
9141;BME280;46330;50.822;7.126;2022-10-16T07:16:43;100800.66;;;14.65;100.00
9141;BME280;46330;50.822;7.126;2022-10-16T07:19:11;100808.38;;;14.70;100.00
9141;BME280;46330;50.822;7.126;2022-10-16T07:21:41;100809.91;;;14.77;100.00
9141;BME280;46330;50.822;7.126;2022-10-16T07:24:12;100817.81;;;14.77;100.00
9141;BME280;46330;50.822;7.126;2022-10-16T07:26:41;100830.88;;;14.80;100.00
9141;BME280;46330;50.822;7.126;2022-10-16T07:29:13;100831.59;;;14.85;100.00
9141;BME280;46330;50.822;7.126;2022-10-16T07:31:41;100830.63;;;14.87;100.00
9141;BME280;46330;50.822;7.126;2022-10-16T07:34:11;100828.97;;;14.85;100.00
9141;BME280;46330;50.822;7.126;2022-10-16T07:36:40;100839.53;;;14.83;100.00
9141;BME280;46330;50.822;7.126;2022-10-16T07:39:12;100849.06;;;14.87;100.00
9141;BME280;46330;50.822;7.126;2022-10-16T07:41:40;100840.44;;;14.82;100.00
9141;BME280;46330;50.822;7.126;2022-10-16T07:44:08;100849.66;;;14.95;100.00
9141;BME280;46330;50.822;7.126;2022-10-16T07:46:36;100843.59;;;14.93;100.00
9141;BME280;46330;50.822;7.126;2022-10-16T07:49:04;100858.56;;;14.91;100.00
9141;BME280;46330;50.822;7.126;2022-10-16T07:51:33;100859.50;;;14.90;100.00
9141;BME280;46330;50.822;7.126;2022-10-16T07:54:01;100855.81;;;14.94;100.00
9141;BME280;46330;50.822;7.126;2022-10-16T07:56:30;100861.97;;;14.95;100.00
9141;BME280;46330;50.822;7.126;2022-10-16T07:58:58;100862.72;;;14.98;100.00
9141;BME280;46330;50.822;7.126;2022-10-16T08:01:26;100875.53;;;15.09;100.00
9141;BME280;46330;50.822;7.126;2022-10-16T08:03:54;100880.81;;;15.09;100.00
9141;BME280;46330;50.822;7.126;2022-10-16T08:06:22;100892.22;;;15.10;100.00
9141;BME280;46330;50.822;7.126;2022-10-16T08:08:55;100884.31;;;15.10;100.00
9141;BME280;46330;50.822;7.126;2022-10-16T08:11:23;100891.56;;;15.03;100.00
9141;BME280;46330;50.822;7.126;2022-10-16T08:13:51;100893.38;;;15.01;100.00
9141;BME280;46330;50.822;7.126;2022-10-16T08:16:19;100886.50;;;14.97;100.00
9141;BME280;46330;50.822;7.126;2022-10-16T08:18:47;100896.19;;;14.95;100.00
9141;BME280;46330;50.822;7.126;2022-10-16T08:21:16;100895.50;;;15.16;100.00
9141;BME280;46330;50.822;7.126;2022-10-16T08:23:47;100902.97;;;16.02;98.67
9141;BME280;46330;50.822;7.126;2022-10-16T08:26:25;100902.88;;;16.72;92.64
9141;BME280;46330;50.822;7.126;2022-10-16T08:28:54;100910.34;;;16.84;90.63
9141;BME280;46330;50.822;7.126;2022-10-16T08:31:22;100908.91;;;16.97;90.18
9141;BME280;46330;50.822;7.126;2022-10-16T08:33:50;100916.97;;;17.36;87.70
9141;BME280;46330;50.822;7.126;2022-10-16T08:36:19;100906.47;;;17.94;84.83
9141;BME280;46330;50.822;7.126;2022-10-16T08:38:48;100915.03;;;18.19;82.15
9141;BME280;46330;50.822;7.126;2022-10-16T08:41:23;100919.25;;;18.79;80.42
9141;BME280;46330;50.822;7.126;2022-10-16T08:44:24;100917.88;;;18.89;77.40
9141;BME280;46330;50.822;7.126;2022-10-16T08:47:02;100921.94;;;19.30;75.53
9141;BME280;46330;50.822;7.126;2022-10-16T08:49:33;100938.53;;;19.70;73.30
9141;BME280;46330;50.822;7.126;2022-10-16T08:52:01;100938.59;;;19.68;71.87
9141;BME280;46330;50.822;7.126;2022-10-16T08:54:31;100939.19;;;19.91;71.49
9141;BME280;46330;50.822;7.126;2022-10-16T08:57:09;100949.38;;;20.15;69.25
9141;BME280;46330;50.822;7.126;2022-10-16T08:59:39;100949.22;;;19.85;69.43
9141;BME280;46330;50.822;7.126;2022-10-16T09:02:22;100946.81;;;19.64;68.97
9141;BME280;46330;50.822;7.126;2022-10-16T09:05:21;100940.78;;;20.59;67.79
9141;BME280;46330;50.822;7.126;2022-10-16T09:08:00;100945.66;;;20.98;64.05
9141;BME280;46330;50.822;7.126;2022-10-16T09:10:46;100952.44;;;21.49;62.20
9141;BME280;46330;50.822;7.126;2022-10-16T09:13:21;100952.63;;;21.45;63.03
9141;BME280;46330;50.822;7.126;2022-10-16T09:16:00;100958.53;;;20.74;64.73
9141;BME280;46330;50.822;7.126;2022-10-16T09:18:34;100956.72;;;20.10;65.65
9141;BME280;46330;50.822;7.126;2022-10-16T09:21:09;100967.78;;;20.18;65.58
9141;BME280;46330;50.822;7.126;2022-10-16T09:23:39;100960.25;;;21.22;64.02
9141;BME280;46330;50.822;7.126;2022-10-16T09:26:11;100958.13;;;21.72;60.44
9141;BME280;46330;50.822;7.126;2022-10-16T09:28:40;100962.47;;;21.29;61.66
9141;BME280;46330;50.822;7.126;2022-10-16T09:31:14;100964.50;;;21.40;59.26
9141;BME280;46330;50.822;7.126;2022-10-16T09:33:44;100964.31;;;21.87;60.27
9141;BME280;46330;50.822;7.126;2022-10-16T09:36:13;100959.72;;;22.19;57.38
9141;BME280;46330;50.822;7.126;2022-10-16T09:38:41;100960.59;;;21.75;58.47
9141;BME280;46330;50.822;7.126;2022-10-16T09:41:15;100963.53;;;21.71;58.47
9141;BME280;46330;50.822;7.126;2022-10-16T09:43:49;100950.97;;;22.17;58.12
9141;BME280;46330;50.822;7.126;2022-10-16T09:46:26;100962.88;;;22.80;57.46
9141;BME280;46330;50.822;7.126;2022-10-16T09:48:56;100950.16;;;22.71;56.12
9141;BME280;46330;50.822;7.126;2022-10-16T09:51:26;100959.34;;;23.73;54.70
9141;BME280;46330;50.822;7.126;2022-10-16T09:53:57;100960.81;;;22.71;54.36
9141;BME280;46330;50.822;7.126;2022-10-16T09:56:27;100967.91;;;23.38;53.74
9141;BME280;46330;50.822;7.126;2022-10-16T09:58:56;100973.41;;;23.23;51.41
9141;BME280;46330;50.822;7.126;2022-10-16T10:01:30;100964.34;;;22.98;51.30
9141;BME280;46330;50.822;7.126;2022-10-16T10:03:58;100966.16;;;22.98;51.05
9141;BME280;46330;50.822;7.126;2022-10-16T10:06:31;100975.91;;;23.65;50.25
9141;BME280;46330;50.822;7.126;2022-10-16T10:09:04;100962.84;;;23.48;49.53
9141;BME280;46330;50.822;7.126;2022-10-16T10:11:40;100959.09;;;24.15;49.62
9141;BME280;46330;50.822;7.126;2022-10-16T10:14:31;100955.75;;;24.37;47.07
9141;BME280;46330;50.822;7.126;2022-10-16T10:17:11;100942.38;;;24.24;48.17
9141;BME280;46330;50.822;7.126;2022-10-16T10:19:41;100940.13;;;24.31;46.29
9141;BME280;46330;50.822;7.126;2022-10-16T10:22:22;100948.16;;;24.31;46.47
9141;BME280;46330;50.822;7.126;2022-10-16T10:24:56;100947.72;;;23.99;47.12
9141;BME280;46330;50.822;7.126;2022-10-16T10:27:32;100940.66;;;24.36;46.07
9141;BME280;46330;50.822;7.126;2022-10-16T10:30:08;100934.34;;;24.73;44.73
9141;BME280;46330;50.822;7.126;2022-10-16T10:32:41;100930.56;;;25.82;42.91
9141;BME280;46330;50.822;7.126;2022-10-16T10:35:17;100936.63;;;25.73;43.53
9141;BME280;46330;50.822;7.126;2022-10-16T10:37:57;100936.22;;;26.34;40.97
9141;BME280;46330;50.822;7.126;2022-10-16T10:40:39;100941.84;;;26.42;40.20
9141;BME280;46330;50.822;7.126;2022-10-16T10:46:02;100956.00;;;26.33;40.75
9141;BME280;46330;50.822;7.126;2022-10-16T10:48:47;100941.22;;;26.61;38.59
9141;BME280;46330;50.822;7.126;2022-10-16T10:51:24;100953.72;;;25.94;41.68
9141;BME280;46330;50.822;7.126;2022-10-16T10:54:04;100949.34;;;26.04;41.60
9141;BME280;46330;50.822;7.126;2022-10-16T10:56:43;100952.69;;;26.18;40.48
9141;BME280;46330;50.822;7.126;2022-10-16T10:59:28;100956.19;;;25.27;42.37
9141;BME280;46330;50.822;7.126;2022-10-16T11:02:04;100953.19;;;25.55;42.17
9141;BME280;46330;50.822;7.126;2022-10-16T11:05:03;100944.41;;;24.82;41.93
9141;BME280;46330;50.822;7.126;2022-10-16T11:07:49;100951.34;;;24.36;42.74
9141;BME280;46330;50.822;7.126;2022-10-16T11:10:22;100952.88;;;24.63;42.83
9141;BME280;46330;50.822;7.126;2022-10-16T11:12:53;100953.66;;;24.66;42.47
9141;BME280;46330;50.822;7.126;2022-10-16T11:15:25;100951.53;;;25.18;41.04
9141;BME280;46330;50.822;7.126;2022-10-16T11:17:59;100969.53;;;23.80;42.41
9141;BME280;46330;50.822;7.126;2022-10-16T11:20:31;100971.75;;;24.62;41.83
9141;BME280;46330;50.822;7.126;2022-10-16T11:23:02;100961.75;;;24.77;41.22
9141;BME280;46330;50.822;7.126;2022-10-16T11:25:34;100956.19;;;25.27;42.41
9141;BME280;46330;50.822;7.126;2022-10-16T11:28:03;100962.19;;;25.07;41.66
9141;BME280;46330;50.822;7.126;2022-10-16T11:30:47;100962.63;;;24.65;43.00
9141;BME280;46330;50.822;7.126;2022-10-16T11:33:25;100961.41;;;24.20;42.68
9141;BME280;46330;50.822;7.126;2022-10-16T11:36:06;100965.13;;;23.92;42.97
9141;BME280;46330;50.822;7.126;2022-10-16T11:38:43;100961.81;;;23.88;44.64
9141;BME280;46330;50.822;7.126;2022-10-16T11:41:18;100964.69;;;23.47;45.25
9141;BME280;46330;50.822;7.126;2022-10-16T11:43:53;100962.03;;;23.85;43.67
9141;BME280;46330;50.822;7.126;2022-10-16T11:46:24;100959.88;;;23.26;46.49
9141;BME280;46330;50.822;7.126;2022-10-16T11:49:00;100960.75;;;22.99;47.69
9141;BME280;46330;50.822;7.126;2022-10-16T11:51:36;100964.88;;;23.44;46.64
9141;BME280;46330;50.822;7.126;2022-10-16T11:54:14;100963.56;;;23.11;46.26
9141;BME280;46330;50.822;7.126;2022-10-16T11:56:49;100969.69;;;23.52;46.61
9141;BME280;46330;50.822;7.126;2022-10-16T11:59:23;100973.94;;;23.42;47.07
9141;BME280;46330;50.822;7.126;2022-10-16T12:01:57;100973.28;;;23.12;45.81
9141;BME280;46330;50.822;7.126;2022-10-16T12:04:33;100973.09;;;24.31;44.18
9141;BME280;46330;50.822;7.126;2022-10-16T12:07:09;100976.91;;;24.40;43.88
9141;BME280;46330;50.822;7.126;2022-10-16T12:09:40;100968.69;;;24.30;44.30
9141;BME280;46330;50.822;7.126;2022-10-16T12:12:24;100977.22;;;23.97;44.60
9141;BME280;46330;50.822;7.126;2022-10-16T12:15:00;100977.00;;;23.75;44.65
9141;BME280;46330;50.822;7.126;2022-10-16T12:17:47;100971.31;;;23.28;45.11
9141;BME280;46330;50.822;7.126;2022-10-16T12:20:23;100963.25;;;23.42;46.45
9141;BME280;46330;50.822;7.126;2022-10-16T12:22:57;100972.97;;;23.43;45.66
9141;BME280;46330;50.822;7.126;2022-10-16T12:25:30;100965.66;;;23.32;45.29
9141;BME280;46330;50.822;7.126;2022-10-16T12:28:03;100960.13;;;23.87;43.76
9141;BME280;46330;50.822;7.126;2022-10-16T12:30:34;100959.06;;;24.40;42.96
9141;BME280;46330;50.822;7.126;2022-10-16T12:33:05;100960.97;;;23.63;44.87
9141;BME280;46330;50.822;7.126;2022-10-16T12:35:35;100970.19;;;23.18;47.81
9141;BME280;46330;50.822;7.126;2022-10-16T12:38:18;100964.88;;;22.91;47.84
9141;BME280;46330;50.822;7.126;2022-10-16T12:40:56;100966.03;;;22.59;49.00
9141;BME280;46330;50.822;7.126;2022-10-16T12:43:37;100969.25;;;22.23;50.44
9141;BME280;46330;50.822;7.126;2022-10-16T12:46:23;100967.63;;;21.76;51.64
9141;BME280;46330;50.822;7.126;2022-10-16T12:48:51;100964.13;;;21.76;53.05
9141;BME280;46330;50.822;7.126;2022-10-16T12:51:35;100957.69;;;21.94;52.08
9141;BME280;46330;50.822;7.126;2022-10-16T12:54:12;100947.25;;;22.19;51.80
9141;BME280;46330;50.822;7.126;2022-10-16T12:56:46;100953.66;;;21.87;52.49
9141;BME280;46330;50.822;7.126;2022-10-16T12:59:28;100943.84;;;21.73;52.54
9141;BME280;46330;50.822;7.126;2022-10-16T13:05:00;100948.50;;;21.26;53.51
9141;BME280;46330;50.822;7.126;2022-10-16T13:07:43;100955.44;;;21.72;53.63
9141;BME280;46330;50.822;7.126;2022-10-16T13:10:21;100959.81;;;22.03;53.68
9141;BME280;46330;50.822;7.126;2022-10-16T13:16:15;100967.41;;;22.37;51.17
9141;BME280;46330;50.822;7.126;2022-10-16T13:18:54;100953.31;;;22.49;50.35
9141;BME280;46330;50.822;7.126;2022-10-16T13:21:33;100948.97;;;23.16;50.08
9141;BME280;46330;50.822;7.126;2022-10-16T13:24:16;100957.63;;;22.93;50.35
9141;BME280;46330;50.822;7.126;2022-10-16T13:26:54;100963.63;;;22.13;52.32